首页
METAR-TAF:

METAR-TAF

机场 :

達爾文國際機場

达尔文, 澳大利亚

纬度: 12-24S, 经度: 130-52E, 海拔: 31米

当前天气观测

该预报发布于14分钟前的04:00 UTC
风速10节,风向北转东北
温度 29°C
湿度 18%
气压 1013 hPa
能见度10公里或以上
1500米以下无云,无积雨云

METAR: YPDN 230400Z 11011KT CAVOK 29/02 Q1013 FM0500 03010KT CAVOK

时间: 13:44 (04:14 UTC)

预报

该预报发布于5小时和9分钟前的23:05 UTC
预报有效从23日的 00点(UTC)到 24日的 06点(UTC)
风速12节,风向东转东南
能见度10公里或以上
1500米以下无云,无积雨云
从 23日的 0500点(UTC)
风速10节,风向北转东北
能见度10公里或以上
1500米以下无云,无积雨云
从 23日的 1100点(UTC)
风速5节,风向东南
能见度10公里或以上
1500米以下无云,无积雨云

TAF: YPDN 222305Z 2300/2406 12012KT CAVOK FM230500 03010KT CAVOK FM231100 13005KT CAVOK

超过4000个机场的气象观测和天气预报(METAR&TAF报告)。

可查询的气象台以黄色和红色小点在地图上表示。

将鼠标移到小点上方,可查看气象台名称。

然后点击查看天气观测和预报。

如需切换地图:点击带黑十字的绿色按钮放大地图;点击带横线的绿色按钮缩小地图;或者点击绿色箭头查看邻近地区的地图。


METAR-TAF: